createdAt,value
2023-07-18T00:02:36.686Z,10.261744966442953
2023-07-18T00:05:56.619Z,10.10738255033557
2023-07-18T00:09:17.145Z,10.711409395973154
2023-07-18T00:12:37.014Z,11.315436241610739
2023-07-18T00:16:32.550Z,10.154362416107382
2023-07-18T00:19:52.619Z,10.926174496644295
2023-07-18T00:23:13.770Z,10.590604026845638
2023-07-18T00:26:35.153Z,11.087248322147651
2023-07-18T00:32:29.867Z,10.208053691275168
2023-07-18T00:35:51.182Z,11.369127516778523
2023-07-18T00:39:11.265Z,10.577181208053691
2023-07-18T00:42:31.798Z,11.536912751677852
2023-07-18T00:47:14.477Z,11.295302013422818
2023-07-18T00:50:33.870Z,10.436241610738255
2023-07-18T00:53:53.642Z,11.100671140939598
2023-07-18T00:57:13.246Z,12.557046979865772
2023-07-18T01:05:34.569Z,12.140939597315436
2023-07-18T01:08:54.057Z,12.348993288590604
2023-07-18T01:12:14.257Z,12.85234899328859
2023-07-18T01:15:34.361Z,13.523489932885907
2023-07-18T01:19:43.381Z,13.704697986577182
2023-07-18T01:23:02.940Z,12.020134228187919
2023-07-18T01:26:23.551Z,12.691275167785236
2023-07-18T01:29:43.877Z,13.731543624161073
2023-07-18T01:33:04.660Z,13.442953020134228
2023-07-18T01:36:24.862Z,13.140939597315436
2023-07-18T01:39:48.893Z,13.536912751677852
2023-07-18T01:43:20.116Z,14.651006711409396
2023-07-18T01:46:40.188Z,14.40268456375839
2023-07-18T01:49:59.693Z,13.093959731543624
2023-07-18T01:53:19.934Z,14.543624161073826
2023-07-18T01:58:04.051Z,13.818791946308725
2023-07-18T02:01:24.432Z,15.355704697986576
2023-07-18T02:04:44.339Z,13.906040268456376
2023-07-18T02:08:03.738Z,12.583892617449665
2023-07-18T02:11:25.046Z,14.711409395973154
2023-07-18T02:14:44.545Z,12.046979865771812
2023-07-18T02:18:03.966Z,14.87248322147651
2023-07-18T02:24:27.711Z,14.449664429530202
2023-07-18T02:27:47.542Z,13.228187919463087
2023-07-18T02:31:08.227Z,14.315436241610739
2023-07-18T02:35:30.618Z,13.966442953020135
2023-07-18T02:38:50.399Z,14.167785234899329
2023-07-18T02:42:11.379Z,16.201342281879196
2023-07-18T02:45:31.815Z,13.738255033557047
2023-07-18T02:48:52.127Z,14.838926174496644
2023-07-18T02:52:13.380Z,14.181208053691275
2023-07-18T02:55:33.100Z,15.691275167785236
2023-07-18T02:58:53.164Z,15.456375838926174
2023-07-18T03:02:13.376Z,14.53020134228188
2023-07-18T03:05:33.263Z,14.342281879194632
2023-07-18T03:08:53.462Z,15.228187919463087
2023-07-18T03:12:13.655Z,14.805369127516778
2023-07-18T03:15:33.359Z,15.167785234899329
2023-07-18T03:18:55.988Z,15.181208053691275
2023-07-18T03:22:15.870Z,16.21476510067114
2023-07-18T03:25:35.661Z,14.671140939597315
2023-07-18T03:28:55.668Z,15.993288590604028
2023-07-18T03:32:15.786Z,16.55704697986577
2023-07-18T03:35:36.470Z,16.248322147651006
2023-07-18T03:38:56.710Z,15.503355704697986
2023-07-18T03:43:39.382Z,15.449664429530202
2023-07-18T03:47:54.740Z,14.765100671140939
2023-07-18T03:51:15.248Z,15.85234899328859
2023-07-18T03:54:35.930Z,15.59731543624161
2023-07-18T03:57:56.837Z,16.073825503355703
2023-07-18T04:01:17.417Z,15.711409395973154
2023-07-18T04:04:36.714Z,16.530201342281877
2023-07-18T04:07:57.102Z,15.315436241610739
2023-07-18T04:11:17.502Z,14.38255033557047
2023-07-18T04:14:37.394Z,16.55704697986577
2023-07-18T04:17:57.339Z,13.46979865771812
2023-07-18T04:21:17.486Z,14.731543624161073
2023-07-18T04:24:37.407Z,14.859060402684564
2023-07-18T04:28:24.268Z,14.328859060402685
2023-07-18T04:31:44.282Z,15.630872483221477
2023-07-18T04:35:04.636Z,14.751677852348994
2023-07-18T04:38:25.034Z,14.791946308724832
2023-07-18T04:41:54.686Z,14.651006711409396
2023-07-18T04:45:26.436Z,15.630872483221477
2023-07-18T04:48:46.516Z,15.221476510067115
2023-07-18T04:52:13.188Z,15.167785234899329
2023-07-18T04:55:53.912Z,14.859060402684564
2023-07-18T04:59:14.673Z,16.77181208053691
2023-07-18T05:02:34.489Z,15.006711409395972
2023-07-18T05:08:11.341Z,13.201342281879194
2023-07-18T05:12:12.204Z,14.395973154362416
2023-07-18T05:15:40.668Z,14.25503355704698
2023-07-18T05:18:59.891Z,13.48993288590604
2023-07-18T05:22:20.541Z,14.496644295302014
2023-07-18T05:25:41.615Z,11.46979865771812
2023-07-18T05:29:01.597Z,13.979865771812081
2023-07-18T05:32:22.100Z,14.033557046979865
2023-07-18T05:35:42.408Z,12.51006711409396
2023-07-18T05:39:02.066Z,13.14765100671141
2023-07-18T05:42:22.387Z,14.798657718120806
2023-07-18T05:48:35.635Z,12.664429530201343
2023-07-18T05:52:01.337Z,12.422818791946309
2023-07-18T05:55:22.089Z,12.053691275167786
2023-07-18T05:58:41.709Z,11.684563758389261
2023-07-18T06:02:01.500Z,13.442953020134228
2023-07-18T06:06:16.049Z,11.919463087248323
2023-07-18T06:09:35.941Z,11.25503355704698
2023-07-18T06:12:56.556Z,12.832214765100671
2023-07-18T06:16:17.054Z,11.140939597315436
2023-07-18T06:20:18.173Z,10.859060402684564
2023-07-18T06:23:38.524Z,11.302013422818792
2023-07-18T06:28:41.449Z,10.087248322147651
2023-07-18T06:37:48.316Z,10.134228187919463
2023-07-18T06:41:08.810Z,9.033557046979865
2023-07-18T06:44:29.442Z,9.248322147651006
2023-07-18T06:47:49.862Z,9.677852348993289
2023-07-18T06:51:09.500Z,9.926174496644295
2023-07-18T06:54:30.173Z,11.644295302013424
2023-07-18T06:57:49.905Z,10.644295302013424
2023-07-18T07:01:09.798Z,11.013422818791947
2023-07-18T07:11:03.913Z,9.671140939597315
2023-07-18T07:15:41.070Z,8.315436241610739
2023-07-18T07:19:11.344Z,9.691275167785236
2023-07-18T07:22:31.648Z,9.771812080536913
2023-07-18T07:28:24.061Z,9.46979865771812
2023-07-18T07:31:44.438Z,7.261744966442953
2023-07-18T07:35:06.075Z,8.503355704697986
2023-07-18T07:38:26.384Z,8.335570469798657
2023-07-18T07:41:46.132Z,9.10738255033557
2023-07-18T07:45:05.373Z,7.1610738255033555
2023-07-18T07:48:26.262Z,8.919463087248323
2023-07-18T07:53:48.407Z,7.926174496644295
2023-07-18T07:57:08.650Z,7.530201342281879
2023-07-18T08:00:27.947Z,8.342281879194632
2023-07-18T08:03:47.785Z,6.818791946308725
2023-07-18T08:07:10.270Z,8.114093959731544
2023-07-18T08:10:32.284Z,5.9865771812080535
2023-07-18T08:13:51.665Z,5.026845637583893
2023-07-18T08:18:26.620Z,5.919463087248322
2023-07-18T08:21:46.513Z,3.966442953020134
2023-07-18T08:25:06.661Z,4.583892617449664
2023-07-18T08:28:26.873Z,3.6040268456375837
2023-07-18T08:36:38.201Z,4.355704697986577
2023-07-18T08:39:57.760Z,2.651006711409396
2023-07-18T08:43:17.843Z,3.140939597315436
2023-07-18T08:46:37.069Z,3.771812080536913
2023-07-18T08:49:57.420Z,2.7583892617449663
2023-07-18T08:53:18.635Z,2.1073825503355703
2023-07-18T08:59:15.462Z,3.5906040268456376
2023-07-18T09:04:40.225Z,2.9731543624161074
2023-07-18T09:08:00.201Z,2.4496644295302015
2023-07-18T09:11:21.972Z,3.3557046979865772
2023-07-18T09:15:58.916Z,3.3087248322147653
2023-07-18T09:19:19.237Z,3.248322147651007
2023-07-18T09:22:39.624Z,3.442953020134228
2023-07-18T09:25:59.374Z,2.7181208053691277
2023-07-18T09:29:19.677Z,3.577181208053691
2023-07-18T09:32:39.474Z,4.140939597315437
2023-07-18T09:36:00.363Z,4.25503355704698
2023-07-18T09:39:20.074Z,3.5704697986577183
2023-07-18T09:42:45.294Z,5.590604026845638
2023-07-18T09:46:06.383Z,3.120805369127517
2023-07-18T09:52:51.674Z,2.563758389261745
2023-07-18T09:57:24.374Z,3.208053691275168
2023-07-18T10:02:14.545Z,3.3288590604026846
2023-07-18T10:05:35.050Z,2.8322147651006713
2023-07-18T10:08:55.136Z,2.8120805369127515
2023-07-18T10:12:47.699Z,2.0604026845637584
2023-07-18T10:18:08.507Z,3.5838926174496644
2023-07-18T10:21:28.930Z,2.6375838926174495
2023-07-18T10:24:48.879Z,3.6241610738255035
2023-07-18T10:28:08.380Z,3.651006711409396
2023-07-18T10:31:27.903Z,2.3624161073825505
2023-07-18T10:34:48.239Z,4.241610738255034
2023-07-18T10:38:09.140Z,4.966442953020135
2023-07-18T10:41:29.267Z,4.154362416107382
2023-07-18T10:44:48.900Z,3.3557046979865772
2023-07-18T10:48:09.142Z,2.38255033557047
2023-07-18T10:51:29.394Z,4.154362416107382
2023-07-18T10:54:49.277Z,2.9798657718120807
2023-07-18T10:58:09.058Z,3.1677852348993287
2023-07-18T11:04:36.767Z,4.053691275167785
2023-07-18T11:07:56.119Z,4.23489932885906
2023-07-18T11:11:16.409Z,4.221476510067114
2023-07-18T11:14:36.194Z,3.295302013422819
2023-07-18T11:17:56.272Z,3.7114093959731544
2023-07-18T11:21:15.853Z,4.4630872483221475
2023-07-18T11:24:35.744Z,3.7181208053691277
2023-07-18T11:27:55.643Z,2.295302013422819
2023-07-18T11:31:26.584Z,4.510067114093959
2023-07-18T11:39:06.154Z,2.120805369127517
2023-07-18T11:42:25.822Z,2.4295302013422817
2023-07-18T11:45:45.316Z,2.3221476510067114
2023-07-18T11:49:05.478Z,2.6375838926174495
2023-07-18T11:52:26.004Z,2.48993288590604
2023-07-18T11:55:45.452Z,2.9194630872483223
2023-07-18T11:59:06.172Z,2.1073825503355703
2023-07-18T12:07:17.183Z,1.8657718120805369
2023-07-18T12:10:37.694Z,1.0604026845637584
2023-07-18T12:17:09.795Z,3.4563758389261743
2023-07-18T12:20:29.988Z,5.154362416107382
2023-07-18T12:23:49.531Z,4.74496644295302
2023-07-18T12:27:09.102Z,6.604026845637584
2023-07-18T12:30:28.989Z,8.751677852348994
2023-07-18T12:33:48.466Z,9.389261744966444
2023-07-18T12:37:08.870Z,8.154362416107382
2023-07-18T12:40:28.874Z,7.845637583892618
2023-07-18T12:43:48.408Z,8.87248322147651
2023-07-18T12:47:08.096Z,9.140939597315436
2023-07-18T12:50:29.005Z,7.7114093959731544
2023-07-18T12:53:49.203Z,6.791946308724833
2023-07-18T12:57:09.049Z,8.328859060402685
2023-07-18T13:00:29.365Z,8.208053691275168
2023-07-18T13:03:49.460Z,6.932885906040268
2023-07-18T13:07:09.669Z,7.087248322147651
2023-07-18T13:10:29.544Z,8.114093959731544
2023-07-18T13:13:49.339Z,7.449664429530201
2023-07-18T13:19:37.393Z,6.208053691275167
2023-07-18T13:22:56.555Z,5.691275167785235
2023-07-18T13:26:17.315Z,5.275167785234899
2023-07-18T13:29:37.148Z,5.74496644295302
2023-07-18T13:33:26.914Z,6.959731543624161
2023-07-18T13:36:46.604Z,4.624161073825503
2023-07-18T13:40:06.513Z,5.221476510067114
2023-07-18T13:45:00.890Z,5.23489932885906
2023-07-18T13:48:22.161Z,5.114093959731544
2023-07-18T13:51:41.688Z,4.939597315436242
2023-07-18T13:55:01.161Z,5.268456375838926
2023-07-18T13:58:21.249Z,4.315436241610739
2023-07-18T14:01:40.962Z,4.76510067114094
2023-07-18T14:05:00.915Z,5.416107382550336
2023-07-18T14:10:47.017Z,5.489932885906041
2023-07-18T14:14:07.006Z,5.053691275167785
2023-07-18T14:20:03.560Z,5.281879194630872
2023-07-18T14:23:22.981Z,5.114093959731544
2023-07-18T14:26:42.853Z,4.818791946308725
2023-07-18T14:30:02.694Z,5.483221476510067
2023-07-18T14:33:23.105Z,4.590604026845638
2023-07-18T14:39:29.302Z,6.0
2023-07-18T14:42:48.472Z,5.248322147651007
2023-07-18T14:46:09.182Z,5.355704697986577
2023-07-18T14:49:29.852Z,4.617449664429531
2023-07-18T14:52:49.338Z,5.181208053691275
2023-07-18T14:56:09.301Z,4.516778523489933
2023-07-18T14:59:29.521Z,4.040268456375839
2023-07-18T15:02:49.865Z,4.791946308724833
2023-07-18T15:06:09.571Z,4.852348993288591
2023-07-18T15:09:29.464Z,4.322147651006712
2023-07-18T15:12:49.964Z,5.328859060402684
2023-07-18T15:16:10.080Z,4.597315436241611
2023-07-18T15:19:30.651Z,4.684563758389261
2023-07-18T15:26:48.816Z,3.610738255033557
2023-07-18T15:30:08.496Z,2.2818791946308723
2023-07-18T15:33:29.217Z,2.523489932885906
2023-07-18T15:36:49.501Z,3.697986577181208
2023-07-18T15:40:09.993Z,3.161073825503356
2023-07-18T15:45:17.514Z,3.7114093959731544
2023-07-18T15:48:37.287Z,2.6308724832214767
2023-07-18T15:51:57.638Z,2.6375838926174495
2023-07-18T15:55:19.427Z,3.315436241610738
2023-07-18T16:03:32.113Z,3.5369127516778525
2023-07-18T16:06:52.121Z,2.422818791946309
2023-07-18T16:10:13.315Z,2.6241610738255035
2023-07-18T16:13:33.550Z,2.9060402684563758
2023-07-18T16:16:53.737Z,3.8993288590604025
2023-07-18T16:20:14.749Z,5.530201342281879
2023-07-18T16:27:14.200Z,7.76510067114094
2023-07-18T16:31:30.954Z,3.0671140939597317
2023-07-18T16:34:51.182Z,2.791946308724832
2023-07-18T16:38:13.442Z,3.9731543624161074
2023-07-18T16:41:33.328Z,2.87248322147651
2023-07-18T16:56:51.208Z,2.4630872483221475
2023-07-18T17:00:11.141Z,2.8859060402684564
2023-07-18T17:03:31.706Z,1.8523489932885906
2023-07-18T17:07:00.119Z,2.577181208053691
2023-07-18T17:10:20.301Z,2.865771812080537
2023-07-18T17:13:41.202Z,3.3959731543624163
2023-07-18T17:17:16.747Z,2.946308724832215
2023-07-18T17:20:36.538Z,2.0738255033557045
2023-07-18T17:25:49.870Z,2.261744966442953
2023-07-18T17:29:09.693Z,2.530201342281879
2023-07-18T17:32:45.771Z,1.8791946308724832
2023-07-18T17:45:15.459Z,1.8657718120805369
2023-07-18T17:48:34.771Z,2.0738255033557045
2023-07-18T17:51:55.155Z,2.0201342281879193
2023-07-18T17:55:15.147Z,1.7181208053691275
2023-07-18T18:04:29.632Z,2.778523489932886
2023-07-18T18:08:23.614Z,1.9798657718120805
2023-07-18T18:12:01.836Z,2.0268456375838926
2023-07-18T18:34:37.659Z,2.1879194630872485
2023-07-18T18:37:57.787Z,1.8724832214765101
2023-07-18T18:41:19.516Z,2.12751677852349
2023-07-18T18:53:33.532Z,0.9530201342281879
2023-07-18T18:56:53.873Z,1.174496644295302
2023-07-18T19:00:14.626Z,1.0067114093959733
2023-07-18T19:03:35.995Z,2.087248322147651
2023-07-18T19:08:18.779Z,1.8724832214765101
2023-07-18T19:12:17.885Z,1.9463087248322148
2023-07-18T19:15:37.977Z,1.1946308724832215
2023-07-18T19:18:57.873Z,1.4630872483221478
2023-07-18T19:22:20.368Z,1.3825503355704698
2023-07-18T19:28:22.901Z,0.9395973154362416
2023-07-18T19:31:52.645Z,1.9261744966442953
2023-07-18T19:36:37.566Z,2.040268456375839
2023-07-18T19:45:45.129Z,2.295302013422819
2023-07-18T19:49:05.411Z,2.48993288590604
2023-07-18T19:52:25.405Z,3.3624161073825505
2023-07-18T19:57:07.917Z,2.879194630872483
2023-07-18T20:00:56.782Z,3.5033557046979866
2023-07-18T20:04:17.931Z,3.1812080536912752
2023-07-18T20:08:18.219Z,3.214765100671141
2023-07-18T20:11:38.416Z,3.1476510067114094
2023-07-18T20:14:58.713Z,3.2751677852348995
2023-07-18T20:18:20.126Z,3.1677852348993287
2023-07-18T20:21:41.441Z,2.7651006711409396
2023-07-18T20:25:07.686Z,4.523489932885906
2023-07-18T20:33:10.140Z,3.557046979865772
2023-07-18T20:36:30.788Z,3.302013422818792
2023-07-18T20:39:51.092Z,3.422818791946309
2023-07-18T20:43:31.030Z,3.838926174496644
2023-07-18T20:46:50.308Z,3.2751677852348995
2023-07-18T20:53:16.363Z,3.1879194630872485
2023-07-18T20:56:36.129Z,3.0738255033557045
2023-07-18T20:59:56.529Z,2.966442953020134
2023-07-18T21:03:17.397Z,3.6711409395973154
2023-07-18T21:07:09.085Z,3.248322147651007
2023-07-18T21:10:29.477Z,4.2885906040268456
2023-07-18T21:16:16.189Z,5.671140939597316
2023-07-18T21:26:08.775Z,4.852348993288591
2023-07-18T21:30:28.072Z,4.87248322147651
2023-07-18T21:33:48.344Z,5.201342281879195
2023-07-18T21:37:08.764Z,4.503355704697986
2023-07-18T21:40:29.343Z,6.355704697986577
2023-07-18T21:43:49.975Z,3.8322147651006713
2023-07-18T21:47:10.238Z,4.275167785234899
2023-07-18T21:52:38.399Z,3.4630872483221475
2023-07-18T21:55:59.326Z,3.040268456375839
2023-07-18T21:59:20.929Z,3.778523489932886
2023-07-18T22:02:40.494Z,3.2550335570469797
2023-07-18T22:06:00.544Z,4.228187919463087
2023-07-18T22:09:20.799Z,3.865771812080537
2023-07-18T22:12:41.641Z,3.5704697986577183
